Stephens City, Virginia
Current Conditions -  °F | °C
As of 11:15 AM on Monday 24 Nov 2014 (Local Time) from KOKV Reporting Station
Scattered Clouds Scattered Clouds  
Wind Chill: 64°   Ceiling: Unl
Heat Index: 64°   Visibility: 10mi
Dew Point: 52°   Wind: 10mph
Humidity: 64%   Direction: 200°SSW
Pressure: 29.63"   Gusts: NA
Location:  39.08°N, 78.22°W
Report Text: KOKV 241615Z AUTO 20009KT 10SM SCT024 18/11 A2963 RMK AO2
Loading
Personal Weather Stations






























Interactive Weather Map New forecast layout! Learn more

10-Day Weather Forecast

Advertisements
Track Severe Weather on mobile